createdAt,value
2022-12-03T12:36:36.882Z,86.78
2022-12-03T12:55:33.933Z,86.69
2022-12-03T12:58:27.589Z,86.60
2022-12-03T13:01:22.528Z,86.72
2022-12-03T13:03:56.068Z,87.00
2022-12-03T13:07:20.649Z,87.17
2022-12-03T13:09:57.481Z,86.97
2022-12-03T13:12:29.934Z,86.71
2022-12-03T13:18:06.355Z,86.80
2022-12-03T13:24:25.067Z,86.92
2022-12-03T13:26:57.076Z,86.73
2022-12-03T13:29:30.022Z,86.92
2022-12-03T13:35:55.469Z,87.09
2022-12-03T13:38:29.791Z,87.02
2022-12-03T13:41:31.981Z,86.91
2022-12-03T13:44:09.333Z,87.04
2022-12-03T13:47:01.940Z,87.14
2022-12-03T13:49:36.473Z,87.15
2022-12-03T13:52:20.667Z,87.07
2022-12-03T13:54:55.308Z,87.32
2022-12-03T13:57:27.960Z,87.21
2022-12-03T14:00:01.448Z,87.21
2022-12-03T14:06:16.001Z,87.10
2022-12-03T14:11:56.539Z,87.45
2022-12-03T14:14:30.256Z,87.44
2022-12-03T14:17:06.868Z,87.40
2022-12-03T14:19:54.319Z,87.54
2022-12-03T14:22:25.411Z,87.46
2022-12-03T14:24:59.472Z,87.45
2022-12-03T14:31:08.676Z,87.45
2022-12-03T14:33:55.210Z,87.36
2022-12-03T14:36:26.549Z,87.61
2022-12-03T14:38:56.683Z,87.46
2022-12-03T14:41:43.136Z,87.21
2022-12-03T14:44:11.298Z,87.53
2022-12-03T14:46:39.460Z,87.66
2022-12-03T14:49:08.152Z,87.75
2022-12-03T14:51:37.088Z,87.56
2022-12-03T15:04:32.941Z,87.82
2022-12-03T15:10:05.310Z,88.02
2022-12-03T15:12:41.657Z,87.76
2022-12-03T15:15:14.937Z,87.75
2022-12-03T16:07:51.151Z,88.59
2022-12-03T16:13:13.399Z,88.47
2022-12-03T16:15:53.242Z,88.24
2022-12-03T16:18:32.727Z,88.35
2022-12-03T16:21:04.486Z,88.29
2022-12-03T17:01:42.837Z,89.32
2022-12-03T17:04:12.977Z,89.49
2022-12-03T17:06:50.234Z,89.24
2022-12-03T17:09:22.120Z,88.94
2022-12-03T17:11:53.353Z,89.05
2022-12-03T17:14:44.566Z,89.46
2022-12-03T17:17:33.734Z,89.56
2022-12-03T17:20:22.487Z,89.46
2022-12-03T17:23:07.301Z,89.82
2022-12-03T17:25:56.904Z,89.63
2022-12-03T17:28:46.876Z,89.68
2022-12-03T17:31:41.453Z,89.79
2022-12-03T17:34:32.345Z,89.62
2022-12-03T17:37:21.224Z,89.97
2022-12-03T17:39:48.908Z,90.00
2022-12-03T17:42:19.671Z,89.88
2022-12-03T17:44:49.639Z,90.09
2022-12-03T17:47:17.512Z,90.25
2022-12-03T17:50:28.382Z,90.10
2022-12-03T17:53:21.051Z,90.08
2022-12-03T17:56:09.256Z,90.31
2022-12-03T17:58:58.039Z,90.36
2022-12-03T18:01:47.250Z,90.20
2022-12-03T18:04:22.218Z,90.41
2022-12-03T18:07:44.220Z,90.34
2022-12-03T18:10:52.241Z,90.39
2022-12-03T18:13:43.100Z,90.46
2022-12-03T18:16:37.618Z,90.68
2022-12-03T18:19:26.539Z,90.78
2022-12-03T18:21:55.858Z,90.57
2022-12-03T18:24:26.540Z,90.27
2022-12-03T18:27:14.996Z,90.25
2022-12-03T18:29:46.780Z,90.58
2022-12-03T18:32:36.590Z,90.76
2022-12-03T18:35:10.656Z,90.59
2022-12-03T18:37:40.708Z,90.53
2022-12-03T18:40:32.015Z,90.45
2022-12-03T18:43:22.924Z,90.53
2022-12-03T18:46:31.051Z,90.61
2022-12-03T18:49:04.203Z,90.68
2022-12-03T18:51:59.051Z,90.44
2022-12-03T18:54:49.909Z,90.77
2022-12-03T18:57:42.714Z,90.71
2022-12-03T19:00:33.630Z,91.02
2022-12-03T19:03:26.012Z,90.85
2022-12-03T19:06:19.105Z,90.93
2022-12-03T19:08:54.978Z,91.08
2022-12-03T19:11:46.279Z,90.89
2022-12-03T19:14:39.375Z,90.88
2022-12-03T19:17:30.278Z,90.87
2022-12-03T19:20:20.751Z,90.93
2022-12-03T19:22:51.100Z,91.30
2022-12-03T19:25:42.700Z,91.31
2022-12-03T19:28:34.126Z,91.11
2022-12-03T19:31:23.141Z,90.90
2022-12-03T19:34:16.347Z,90.91
2022-12-03T19:37:08.553Z,90.91
2022-12-03T19:40:01.685Z,91.19
2022-12-03T19:42:35.128Z,90.99
2022-12-03T19:46:23.781Z,91.32
2022-12-03T19:48:55.486Z,91.22
2022-12-03T19:51:36.758Z,90.91
2022-12-03T19:54:31.751Z,91.39
2022-12-03T19:57:24.759Z,91.17
2022-12-03T20:00:19.999Z,91.21
2022-12-03T20:03:17.867Z,91.54
2022-12-03T20:05:53.294Z,91.56
2022-12-03T20:08:34.971Z,91.02
2022-12-03T20:11:32.281Z,91.35
2022-12-03T20:14:29.314Z,91.49
2022-12-03T20:17:04.433Z,91.56
2022-12-03T20:20:02.103Z,91.25
2022-12-03T20:23:13.373Z,91.54
2022-12-03T20:25:54.791Z,91.46
2022-12-03T20:28:56.841Z,91.53
2022-12-03T20:31:49.410Z,91.25
2022-12-03T20:34:43.619Z,91.13
2022-12-03T20:37:40.233Z,91.29
2022-12-03T20:40:42.149Z,91.35
2022-12-03T20:43:36.706Z,91.59
2022-12-03T20:46:40.961Z,91.47
2022-12-03T20:49:46.319Z,91.53
2022-12-03T20:52:20.690Z,91.64
2022-12-03T20:55:16.461Z,91.43
2022-12-03T20:58:11.064Z,91.52
2022-12-03T21:00:44.868Z,91.38
2022-12-03T21:03:51.376Z,91.69
2022-12-03T21:06:45.481Z,91.70
2022-12-03T21:09:18.473Z,91.29
2022-12-03T21:12:10.154Z,91.61
2022-12-03T21:15:03.506Z,91.36
2022-12-03T21:17:56.941Z,91.86
2022-12-03T21:20:51.114Z,91.71
2022-12-03T21:23:22.159Z,91.70
2022-12-03T21:26:16.631Z,91.48
2022-12-03T21:28:52.343Z,91.50
2022-12-03T21:31:48.410Z,91.70
2022-12-03T21:34:59.557Z,91.81
2022-12-03T21:37:53.023Z,91.45
2022-12-03T21:40:44.666Z,91.56
2022-12-03T21:43:42.132Z,91.76
2022-12-03T21:47:09.747Z,91.69
2022-12-03T21:49:32.365Z,91.77
2022-12-03T21:52:34.908Z,91.75
2022-12-03T21:55:26.272Z,91.95
2022-12-03T21:58:31.612Z,91.73
2022-12-03T22:01:29.452Z,91.66
2022-12-03T22:04:35.757Z,91.76
2022-12-03T22:07:06.985Z,91.80
2022-12-03T22:10:05.380Z,91.80
2022-12-03T22:13:00.339Z,91.67
2022-12-03T22:15:38.363Z,91.79
2022-12-03T22:18:39.523Z,91.69
2022-12-03T22:21:13.703Z,91.68
2022-12-03T22:23:45.694Z,91.77
2022-12-03T22:26:40.468Z,91.68
2022-12-03T22:29:49.171Z,91.98
2022-12-03T22:32:24.686Z,91.70
2022-12-03T22:35:29.911Z,92.09
2022-12-03T22:38:23.941Z,92.02
2022-12-03T22:41:27.026Z,92.00
2022-12-03T22:44:29.304Z,92.11
2022-12-03T22:47:22.301Z,91.85
2022-12-03T22:50:17.407Z,91.88
2022-12-03T22:52:49.136Z,92.24
2022-12-03T22:55:42.245Z,91.89
2022-12-03T22:58:33.189Z,92.17
2022-12-03T23:01:29.558Z,92.09
2022-12-03T23:04:04.856Z,91.84
2022-12-03T23:07:00.517Z,92.22
2022-12-03T23:09:54.940Z,92.21
2022-12-03T23:12:27.665Z,92.07
2022-12-03T23:14:58.621Z,91.93
2022-12-03T23:17:34.548Z,92.08
2022-12-03T23:20:06.756Z,92.09
2022-12-03T23:22:37.277Z,91.91
2022-12-03T23:25:12.460Z,91.96
2022-12-03T23:27:45.504Z,91.76
2022-12-03T23:30:17.957Z,92.14
2022-12-03T23:33:10.938Z,92.21
2022-12-03T23:35:43.656Z,92.07
2022-12-03T23:38:14.890Z,92.08
2022-12-03T23:40:48.216Z,92.17
2022-12-03T23:43:19.126Z,92.11
2022-12-03T23:45:51.845Z,92.20
2022-12-03T23:48:22.308Z,92.27
2022-12-03T23:50:53.333Z,92.36
2022-12-03T23:53:23.898Z,92.14
2022-12-03T23:56:10.160Z,92.12
2022-12-03T23:58:41.909Z,92.43
